createdAt,value
2018-04-18T00:00:19.483Z,989.21
2018-04-18T00:01:19.768Z,989.28
2018-04-18T00:02:19.969Z,989.27
2018-04-18T00:03:20.209Z,989.29
2018-04-18T00:04:20.451Z,989.26
2018-04-18T00:05:20.693Z,989.29
2018-04-18T00:06:20.936Z,989.26
2018-04-18T00:07:21.179Z,989.27
2018-04-18T00:08:21.420Z,989.24
2018-04-18T00:09:21.663Z,989.23
2018-04-18T00:10:21.903Z,989.28
2018-04-18T00:11:22.147Z,989.26
2018-04-18T00:12:22.389Z,989.24
2018-04-18T00:13:22.633Z,989.25
2018-04-18T00:14:22.876Z,989.28
2018-04-18T00:15:23.119Z,989.26
2018-04-18T00:16:23.357Z,989.25
2018-04-18T00:17:23.599Z,989.23
2018-04-18T00:18:23.842Z,989.19
2018-04-18T00:19:24.084Z,989.18
2018-04-18T00:20:24.327Z,989.20
2018-04-18T00:21:24.569Z,989.19
2018-04-18T00:22:24.812Z,989.20
2018-04-18T00:23:25.056Z,989.21
2018-04-18T00:24:25.333Z,989.18
2018-04-18T00:25:25.540Z,989.17
2018-04-18T00:26:25.782Z,989.17
2018-04-18T00:27:26.024Z,989.21
2018-04-18T00:28:26.265Z,989.20
2018-04-18T00:29:26.508Z,989.22
2018-04-18T00:30:26.748Z,989.20
2018-04-18T00:31:26.990Z,989.21
2018-04-18T00:32:27.232Z,989.22
2018-04-18T00:33:27.473Z,989.21
2018-04-18T00:34:27.713Z,989.23
2018-04-18T00:35:27.955Z,989.24
2018-04-18T00:36:28.197Z,989.24
2018-04-18T00:37:28.439Z,989.27
2018-04-18T00:38:28.683Z,989.25
2018-04-18T00:39:28.923Z,989.30
2018-04-18T00:40:29.164Z,989.31
2018-04-18T00:41:29.407Z,989.30
2018-04-18T00:42:29.647Z,989.33
2018-04-18T00:43:29.890Z,989.32
2018-04-18T00:44:30.132Z,989.34
2018-04-18T00:45:30.373Z,989.37
2018-04-18T00:46:30.612Z,989.39
2018-04-18T00:47:30.855Z,989.36
2018-04-18T00:48:31.101Z,989.37
2018-04-18T00:49:31.332Z,989.36
2018-04-18T00:50:31.575Z,989.39
2018-04-18T00:51:31.817Z,989.40
2018-04-18T00:52:32.058Z,989.43
2018-04-18T00:53:32.301Z,989.37
2018-04-18T00:54:32.542Z,989.42
2018-04-18T00:55:32.786Z,989.38
2018-04-18T00:56:33.026Z,989.41
2018-04-18T00:57:33.268Z,989.38
2018-04-18T00:58:33.510Z,989.40
2018-04-18T00:59:33.752Z,989.39
2018-04-18T01:00:33.993Z,989.37
2018-04-18T01:01:34.238Z,989.39
2018-04-18T01:02:34.474Z,989.36
2018-04-18T01:03:34.715Z,989.37
2018-04-18T01:04:34.958Z,989.38
2018-04-18T01:05:35.198Z,989.39
2018-04-18T01:06:35.441Z,989.39
2018-04-18T01:07:35.683Z,989.39
2018-04-18T01:08:35.924Z,989.38
2018-04-18T01:09:36.170Z,989.41
2018-04-18T01:10:36.411Z,989.41
2018-04-18T01:11:36.657Z,989.37
2018-04-18T01:12:36.899Z,989.36
2018-04-18T01:13:37.147Z,989.36
2018-04-18T01:14:37.386Z,989.35
2018-04-18T01:15:37.628Z,989.35
2018-04-18T01:16:37.868Z,989.34
2018-04-18T01:17:38.111Z,989.36
2018-04-18T01:18:38.354Z,989.37
2018-04-18T01:19:38.595Z,989.37
2018-04-18T01:20:38.838Z,989.39
2018-04-18T01:21:39.079Z,989.41
2018-04-18T01:22:39.320Z,989.37
2018-04-18T01:23:39.566Z,989.39
2018-04-18T01:24:39.809Z,989.41
2018-04-18T01:25:40.051Z,989.41
2018-04-18T01:26:40.295Z,989.42
2018-04-18T01:27:40.538Z,989.44
2018-04-18T01:28:40.777Z,989.42
2018-04-18T01:29:41.021Z,989.46
2018-04-18T01:30:41.262Z,989.42
2018-04-18T01:31:41.503Z,989.43
2018-04-18T01:32:41.747Z,989.45
2018-04-18T01:33:41.990Z,989.43
2018-04-18T01:34:42.231Z,989.43
2018-04-18T01:35:42.474Z,989.44
2018-04-18T01:36:42.716Z,989.48
2018-04-18T01:37:42.959Z,989.47
2018-04-18T01:38:43.202Z,989.49
2018-04-18T01:39:43.444Z,989.50
2018-04-18T01:40:43.687Z,989.48
2018-04-18T01:41:43.930Z,989.48
2018-04-18T01:42:44.174Z,989.48
2018-04-18T01:43:44.414Z,989.47
2018-04-18T01:44:44.658Z,989.47
2018-04-18T01:45:44.899Z,989.50
2018-04-18T01:46:45.146Z,989.52
2018-04-18T01:47:45.388Z,989.49
2018-04-18T01:48:45.626Z,989.48
2018-04-18T01:49:45.875Z,989.50
2018-04-18T01:50:46.113Z,989.55
2018-04-18T01:51:46.354Z,989.53
2018-04-18T01:52:46.597Z,989.54
2018-04-18T01:53:46.838Z,989.55
2018-04-18T01:54:47.081Z,989.55
2018-04-18T01:55:47.324Z,989.58
2018-04-18T01:56:47.567Z,989.57
2018-04-18T01:57:47.809Z,989.54
2018-04-18T01:58:48.053Z,989.55
2018-04-18T01:59:48.295Z,989.55
2018-04-18T02:00:48.536Z,989.57
2018-04-18T02:01:48.781Z,989.57
2018-04-18T02:02:49.025Z,989.54
2018-04-18T02:03:49.266Z,989.57
2018-04-18T02:04:49.510Z,989.57
2018-04-18T02:05:49.752Z,989.64
2018-04-18T02:06:49.995Z,989.67
2018-04-18T02:07:50.235Z,989.63
2018-04-18T02:08:50.478Z,989.61
2018-04-18T02:09:50.720Z,989.66
2018-04-18T02:10:50.964Z,989.69
2018-04-18T02:11:51.207Z,989.68
2018-04-18T02:12:51.446Z,989.69
2018-04-18T02:13:51.686Z,989.69
2018-04-18T02:14:51.926Z,989.69
2018-04-18T02:15:52.172Z,989.71
2018-04-18T02:16:52.409Z,989.69
2018-04-18T02:17:52.649Z,989.71
2018-04-18T02:18:52.890Z,989.72
2018-04-18T02:19:53.133Z,989.76
2018-04-18T02:20:53.374Z,989.74
2018-04-18T02:21:53.613Z,989.72
2018-04-18T02:22:53.856Z,989.75
2018-04-18T02:23:54.096Z,989.71
2018-04-18T02:24:54.336Z,989.77
2018-04-18T02:25:54.575Z,989.73
2018-04-18T02:26:54.815Z,989.74
2018-04-18T02:27:55.053Z,989.74
2018-04-18T02:28:55.297Z,989.77
2018-04-18T02:29:55.535Z,989.77
2018-04-18T02:30:55.777Z,989.74
2018-04-18T02:31:56.015Z,989.73
2018-04-18T02:32:56.255Z,989.74
2018-04-18T02:33:56.495Z,989.78
2018-04-18T02:34:56.734Z,989.77
2018-04-18T02:35:56.972Z,989.78
2018-04-18T02:36:57.212Z,989.77
2018-04-18T02:37:57.456Z,989.79
2018-04-18T02:38:57.696Z,989.77
2018-04-18T02:39:57.932Z,989.78
2018-04-18T02:40:58.171Z,989.75
2018-04-18T02:41:58.411Z,989.78
2018-04-18T02:42:58.652Z,989.80
2018-04-18T02:43:58.892Z,989.79
2018-04-18T02:44:59.131Z,989.80
2018-04-18T02:45:59.367Z,989.79
2018-04-18T02:46:59.605Z,989.80
2018-04-18T02:47:59.846Z,989.76
2018-04-18T02:49:00.086Z,989.78
2018-04-18T02:50:00.334Z,989.82
2018-04-18T02:51:00.565Z,989.79
2018-04-18T02:52:00.804Z,989.76
2018-04-18T02:53:01.042Z,989.80
2018-04-18T02:54:01.292Z,989.79
2018-04-18T02:55:01.522Z,989.79
2018-04-18T02:56:01.761Z,989.84
2018-04-18T02:57:01.999Z,989.79
2018-04-18T02:58:02.243Z,989.82
2018-04-18T02:59:02.481Z,989.79
2018-04-18T03:00:02.719Z,989.75
2018-04-18T03:01:02.960Z,989.79
2018-04-18T03:02:03.199Z,989.78
2018-04-18T03:03:03.438Z,989.78
2018-04-18T03:04:03.681Z,989.81
2018-04-18T03:05:03.917Z,989.82
2018-04-18T03:06:04.155Z,989.86
2018-04-18T03:07:04.395Z,989.84
2018-04-18T03:08:04.638Z,989.90
2018-04-18T03:09:04.876Z,989.88
2018-04-18T03:10:05.115Z,989.95
2018-04-18T03:11:05.357Z,989.96
2018-04-18T03:12:05.598Z,989.94
2018-04-18T03:13:05.836Z,989.98
2018-04-18T03:14:06.074Z,989.98
2018-04-18T03:15:06.323Z,989.96
2018-04-18T03:16:06.554Z,989.97
2018-04-18T03:17:06.794Z,990.00
2018-04-18T03:18:07.030Z,989.97
2018-04-18T03:19:07.271Z,989.97
2018-04-18T03:20:07.512Z,989.99
2018-04-18T03:21:07.751Z,989.99
2018-04-18T03:22:07.992Z,989.96
2018-04-18T03:23:14.795Z,990.02
2018-04-18T03:24:08.613Z,989.97
2018-04-18T03:25:08.852Z,989.99
2018-04-18T03:26:09.089Z,989.98
2018-04-18T03:27:09.332Z,990.01
2018-04-18T03:28:09.571Z,990.04
2018-04-18T03:29:09.811Z,990.02
2018-04-18T03:30:10.056Z,990.01
2018-04-18T03:31:10.297Z,990.00
2018-04-18T03:32:10.533Z,990.02
2018-04-18T03:33:10.771Z,990.00
2018-04-18T03:34:11.009Z,990.02
2018-04-18T03:35:11.253Z,990.02
2018-04-18T03:36:11.492Z,990.02
2018-04-18T03:37:11.733Z,990.07
2018-04-18T03:38:11.971Z,990.05
2018-04-18T03:39:12.212Z,990.05
2018-04-18T03:40:12.450Z,990.08
2018-04-18T03:41:12.690Z,990.06
2018-04-18T03:42:12.929Z,990.05
2018-04-18T03:43:13.170Z,990.06
2018-04-18T03:44:13.412Z,990.06
2018-04-18T03:45:13.649Z,990.06
2018-04-18T03:46:13.885Z,990.08
2018-04-18T03:47:14.128Z,990.07
2018-04-18T03:48:14.364Z,990.11
2018-04-18T03:49:14.603Z,990.09
2018-04-18T03:50:14.843Z,990.08
2018-04-18T03:51:15.082Z,990.07
2018-04-18T03:52:15.317Z,990.07
2018-04-18T03:53:15.554Z,990.07
2018-04-18T03:54:15.802Z,990.05
2018-04-18T03:55:16.036Z,990.08
2018-04-18T03:56:16.274Z,990.09
2018-04-18T03:57:16.516Z,990.07
2018-04-18T03:58:16.753Z,990.08
2018-04-18T03:59:17.005Z,990.08
2018-04-18T04:00:17.226Z,990.08
2018-04-18T04:01:17.468Z,990.09
2018-04-18T04:02:17.699Z,990.04
2018-04-18T04:03:17.935Z,990.09
2018-04-18T04:04:18.176Z,990.08
2018-04-18T04:05:18.414Z,990.08
2018-04-18T04:06:18.657Z,990.08
2018-04-18T04:07:18.897Z,990.10
2018-04-18T04:08:19.137Z,990.10
2018-04-18T04:09:19.375Z,990.10
2018-04-18T04:10:19.614Z,990.12
2018-04-18T04:11:19.858Z,990.15
2018-04-18T04:12:20.097Z,990.14
2018-04-18T04:13:20.343Z,990.14
2018-04-18T04:14:20.576Z,990.19
2018-04-18T04:15:20.813Z,990.18
2018-04-18T04:16:21.056Z,990.16
2018-04-18T04:17:21.291Z,990.14
2018-04-18T04:18:21.529Z,990.19
2018-04-18T04:19:21.771Z,990.17
2018-04-18T04:20:22.009Z,990.18
2018-04-18T04:21:22.237Z,990.16
2018-04-18T04:22:22.477Z,990.22
2018-04-18T04:23:22.716Z,990.24
2018-04-18T04:24:22.952Z,990.22
2018-04-18T04:25:23.192Z,990.23
2018-04-18T04:26:23.428Z,990.25
2018-04-18T04:27:23.673Z,990.27
2018-04-18T04:28:23.911Z,990.26
2018-04-18T04:29:24.153Z,990.27
2018-04-18T04:30:24.388Z,990.25
2018-04-18T04:31:24.628Z,990.31
2018-04-18T04:32:24.872Z,990.32
2018-04-18T04:33:25.106Z,990.33
2018-04-18T04:34:25.355Z,990.30
2018-04-18T04:35:25.583Z,990.34
2018-04-18T04:36:25.821Z,990.34
2018-04-18T04:37:26.059Z,990.34
2018-04-18T04:38:26.299Z,990.41
2018-04-18T04:39:26.539Z,990.40
2018-04-18T04:40:26.777Z,990.38
2018-04-18T04:41:27.015Z,990.39
2018-04-18T04:42:27.254Z,990.43
2018-04-18T04:43:27.494Z,990.46
2018-04-18T04:44:27.736Z,990.42
2018-04-18T04:45:27.970Z,990.46
2018-04-18T04:46:28.208Z,990.48
2018-04-18T04:47:28.450Z,990.46
2018-04-18T04:48:28.689Z,990.49
2018-04-18T04:49:28.930Z,990.49
2018-04-18T04:50:29.166Z,990.52
2018-04-18T04:51:29.404Z,990.55
2018-04-18T04:52:29.640Z,990.56
2018-04-18T04:53:29.884Z,990.54
2018-04-18T04:54:30.126Z,990.57
2018-04-18T04:55:30.364Z,990.58
2018-04-18T04:56:30.703Z,990.60
2018-04-18T04:57:30.845Z,990.60
2018-04-18T04:58:31.084Z,990.62
2018-04-18T04:59:31.323Z,990.65
2018-04-18T05:00:31.564Z,990.65
2018-04-18T05:01:31.806Z,990.67
2018-04-18T05:02:32.081Z,990.69
2018-04-18T05:03:32.285Z,990.73
2018-04-18T05:04:32.526Z,990.70
2018-04-18T05:05:32.767Z,990.71
2018-04-18T05:06:33.007Z,990.72
2018-04-18T05:07:33.248Z,990.71
2018-04-18T05:08:33.487Z,990.72
2018-04-18T05:09:33.729Z,990.74
2018-04-18T05:10:33.971Z,990.74
2018-04-18T05:11:34.211Z,990.75
2018-04-18T05:12:34.449Z,990.73
2018-04-18T05:13:34.690Z,990.73
2018-04-18T05:14:34.929Z,990.77
2018-04-18T05:15:35.169Z,990.81
2018-04-18T05:16:35.408Z,990.78
2018-04-18T05:17:35.651Z,990.77
2018-04-18T05:18:35.932Z,990.77
2018-04-18T05:19:36.175Z,990.81
2018-04-18T05:20:36.417Z,990.83
2018-04-18T05:21:36.658Z,990.84
2018-04-18T05:22:36.973Z,990.85
2018-04-18T05:23:37.263Z,990.89
2018-04-18T05:24:37.506Z,990.90
2018-04-18T05:25:37.743Z,990.88
2018-04-18T05:26:37.979Z,990.87
2018-04-18T05:27:38.217Z,990.92
2018-04-18T05:28:38.463Z,990.91
2018-04-18T05:29:38.751Z,990.95
2018-04-18T05:30:38.994Z,990.92
2018-04-18T05:31:39.232Z,990.92
2018-04-18T05:32:39.473Z,990.96
2018-04-18T05:33:39.713Z,990.97
2018-04-18T05:34:39.953Z,990.99
2018-04-18T05:35:40.193Z,991.00
2018-04-18T05:36:40.429Z,990.97
2018-04-18T05:37:40.669Z,990.98
2018-04-18T05:38:40.954Z,990.97
2018-04-18T05:39:41.193Z,990.99
2018-04-18T05:40:41.488Z,991.02
2018-04-18T05:41:41.713Z,991.05
2018-04-18T05:42:41.947Z,991.05
2018-04-18T05:43:42.191Z,991.06
2018-04-18T05:44:42.433Z,991.13
2018-04-18T05:45:42.674Z,991.08
2018-04-18T05:46:42.915Z,991.09
2018-04-18T05:47:43.155Z,991.10
2018-04-18T05:48:43.396Z,991.14
2018-04-18T05:49:43.638Z,991.14
2018-04-18T05:50:43.877Z,991.18
2018-04-18T05:51:44.118Z,991.17
2018-04-18T05:52:44.358Z,991.16
2018-04-18T05:53:44.640Z,991.18
2018-04-18T05:54:44.843Z,991.19
2018-04-18T05:55:45.083Z,991.22
2018-04-18T05:56:45.324Z,991.21
2018-04-18T05:57:45.567Z,991.22
2018-04-18T05:58:45.806Z,991.24
2018-04-18T05:59:46.051Z,991.28
2018-04-18T06:00:46.294Z,991.28
2018-04-18T06:01:46.530Z,991.29
2018-04-18T06:02:46.771Z,991.29
2018-04-18T06:03:47.012Z,991.30
2018-04-18T06:04:47.284Z,991.35
2018-04-18T06:05:47.501Z,991.33
2018-04-18T06:06:47.738Z,991.34
2018-04-18T06:07:47.982Z,991.38
2018-04-18T06:08:48.220Z,991.35
2018-04-18T06:09:48.464Z,991.35
2018-04-18T06:10:48.709Z,991.37
2018-04-18T06:11:48.947Z,991.36
2018-04-18T06:12:49.190Z,991.43
2018-04-18T06:13:49.430Z,991.44
2018-04-18T06:14:49.673Z,991.47
2018-04-18T06:15:49.928Z,991.44
2018-04-18T06:16:50.160Z,991.50
2018-04-18T06:17:50.404Z,991.47
2018-04-18T06:18:50.645Z,991.47
2018-04-18T06:19:50.888Z,991.51
2018-04-18T06:20:51.134Z,991.49
2018-04-18T06:21:51.372Z,991.51
2018-04-18T06:22:51.616Z,991.55
2018-04-18T06:23:51.858Z,991.56
2018-04-18T06:24:52.097Z,991.57
2018-04-18T06:25:52.341Z,991.54
2018-04-18T06:26:52.582Z,991.60
2018-04-18T06:27:52.821Z,991.58
2018-04-18T06:28:53.063Z,991.60
2018-04-18T06:29:53.313Z,991.59
2018-04-18T06:30:53.556Z,991.61
2018-04-18T06:31:53.799Z,991.62
2018-04-18T06:32:54.039Z,991.64
2018-04-18T06:33:54.280Z,991.62
2018-04-18T06:34:54.532Z,991.65
2018-04-18T06:35:54.764Z,991.65
2018-04-18T06:36:55.005Z,991.65
2018-04-18T06:37:55.247Z,991.64
2018-04-18T06:38:55.493Z,991.67
2018-04-18T06:39:55.741Z,991.66
2018-04-18T06:40:55.985Z,991.67
2018-04-18T06:41:56.226Z,991.67
2018-04-18T06:42:56.473Z,991.64
2018-04-18T06:43:56.715Z,991.66
2018-04-18T06:44:56.954Z,991.71
2018-04-18T06:45:57.295Z,991.68
2018-04-18T06:46:57.441Z,991.67
2018-04-18T06:47:57.684Z,991.74
2018-04-18T06:48:57.927Z,991.73
2018-04-18T06:49:58.170Z,991.76
2018-04-18T06:50:58.418Z,991.78
2018-04-18T06:51:58.665Z,991.78
2018-04-18T06:52:58.909Z,991.78
2018-04-18T06:53:59.165Z,991.77
2018-04-18T06:54:59.397Z,991.78
2018-04-18T06:55:59.643Z,991.78
2018-04-18T06:56:59.890Z,991.81
2018-04-18T06:58:00.135Z,991.81
2018-04-18T06:59:00.383Z,991.86
2018-04-18T07:00:00.632Z,991.89
2018-04-18T07:01:00.877Z,991.91
2018-04-18T07:02:01.124Z,991.93
2018-04-18T07:03:01.372Z,991.92
2018-04-18T07:04:01.618Z,991.97
2018-04-18T07:05:01.868Z,991.99
2018-04-18T07:06:02.118Z,992.00
2018-04-18T07:07:02.357Z,991.95
2018-04-18T07:08:02.607Z,991.98
2018-04-18T07:09:02.853Z,992.00
2018-04-18T07:10:03.104Z,991.98
2018-04-18T07:11:03.346Z,992.04
2018-04-18T07:12:03.602Z,991.99
2018-04-18T07:13:03.840Z,992.00
2018-04-18T07:14:04.089Z,992.03
2018-04-18T07:15:04.337Z,992.05
2018-04-18T07:16:04.586Z,992.05
2018-04-18T07:17:04.827Z,992.09
2018-04-18T07:18:05.081Z,992.07
2018-04-18T07:19:05.330Z,992.09
2018-04-18T07:20:05.579Z,992.09
2018-04-18T07:21:05.826Z,992.11
2018-04-18T07:22:06.077Z,992.09
2018-04-18T07:23:06.325Z,992.12
2018-04-18T07:24:06.575Z,992.17
2018-04-18T07:25:06.822Z,992.13
2018-04-18T07:26:07.069Z,992.19
2018-04-18T07:27:07.322Z,992.22
2018-04-18T07:28:07.568Z,992.21
2018-04-18T07:29:07.818Z,992.22
2018-04-18T07:30:08.070Z,992.23
2018-04-18T07:31:08.315Z,992.30
2018-04-18T07:32:08.564Z,992.32
2018-04-18T07:33:08.814Z,992.33
2018-04-18T07:34:09.067Z,992.34
2018-04-18T07:35:09.307Z,992.34
2018-04-18T07:36:09.564Z,992.35
2018-04-18T07:37:09.815Z,992.34
2018-04-18T07:38:10.065Z,992.31
2018-04-18T07:39:10.322Z,992.32
2018-04-18T07:40:10.614Z,992.37
2018-04-18T07:41:10.814Z,992.38
2018-04-18T07:42:11.065Z,992.40
2018-04-18T07:43:11.317Z,992.43
2018-04-18T07:44:11.566Z,992.42
2018-04-18T07:45:11.817Z,992.43
2018-04-18T07:46:12.070Z,992.45
2018-04-18T07:47:12.325Z,992.48
2018-04-18T07:48:12.577Z,992.49
2018-04-18T07:49:12.831Z,992.48
2018-04-18T07:50:13.083Z,992.46
2018-04-18T07:51:13.330Z,992.51
2018-04-18T07:52:13.586Z,992.51
2018-04-18T07:53:13.839Z,992.55
2018-04-18T07:54:14.091Z,992.60
2018-04-18T07:55:14.343Z,992.58
2018-04-18T07:56:14.594Z,992.60
2018-04-18T07:57:15.140Z,992.63
2018-04-18T07:58:15.224Z,992.64
2018-04-18T07:59:15.479Z,992.64
2018-04-18T08:00:15.733Z,992.66
2018-04-18T08:01:15.988Z,992.68
2018-04-18T08:02:16.239Z,992.68
2018-04-18T08:03:16.489Z,992.66
2018-04-18T08:04:16.744Z,992.71
2018-04-18T08:05:16.995Z,992.77
2018-04-18T08:06:17.252Z,992.74
2018-04-18T08:07:17.505Z,992.75
2018-04-18T08:08:17.757Z,992.74
2018-04-18T08:09:18.010Z,992.81
2018-04-18T08:10:18.266Z,992.82
2018-04-18T08:11:18.526Z,992.78
2018-04-18T08:12:18.773Z,992.75
2018-04-18T08:13:19.028Z,992.80
2018-04-18T08:14:19.282Z,992.83
2018-04-18T08:15:19.573Z,992.80
2018-04-18T08:16:19.791Z,992.83
2018-04-18T08:17:20.044Z,992.82
2018-04-18T08:18:20.298Z,992.81
2018-04-18T08:19:20.553Z,992.87
2018-04-18T08:20:20.808Z,992.87
2018-04-18T08:21:21.065Z,992.91
2018-04-18T08:22:21.321Z,992.88
2018-04-18T08:23:21.575Z,992.89
2018-04-18T08:24:21.829Z,992.93
2018-04-18T08:25:22.083Z,993.02
2018-04-18T08:26:22.345Z,993.07
2018-04-18T08:27:22.595Z,993.10
2018-04-18T08:28:22.848Z,993.23
2018-04-18T08:29:23.108Z,993.46
2018-04-18T08:30:23.361Z,993.54
2018-04-18T08:31:23.618Z,993.42
2018-04-18T08:32:23.875Z,993.34
2018-04-18T08:33:24.129Z,993.30
2018-04-18T08:34:24.383Z,993.26
2018-04-18T08:35:24.642Z,993.28
2018-04-18T08:36:24.891Z,993.27
2018-04-18T08:37:25.152Z,993.26
2018-04-18T08:38:25.406Z,993.24
2018-04-18T08:39:25.660Z,993.25
2018-04-18T08:40:25.916Z,993.29
2018-04-18T08:41:26.173Z,993.29
2018-04-18T08:42:26.427Z,993.24
2018-04-18T08:43:26.686Z,993.22
2018-04-18T08:44:26.946Z,993.24
2018-04-18T08:45:27.199Z,993.22
2018-04-18T08:46:27.455Z,993.24
2018-04-18T08:47:27.711Z,993.26
2018-04-18T08:48:27.967Z,993.19
2018-04-18T08:49:28.224Z,993.23
2018-04-18T08:50:28.484Z,993.24
2018-04-18T08:51:28.741Z,993.23
2018-04-18T08:52:28.999Z,993.28
2018-04-18T08:53:29.255Z,993.29
2018-04-18T08:54:29.509Z,993.26
2018-04-18T08:55:29.769Z,993.32
2018-04-18T08:56:30.027Z,993.33
2018-04-18T08:57:30.284Z,993.35
2018-04-18T08:58:30.542Z,993.36
2018-04-18T08:59:30.799Z,993.33
2018-04-18T09:00:31.059Z,993.30
2018-04-18T09:01:31.317Z,993.32
2018-04-18T09:02:31.573Z,993.32
2018-04-18T09:03:31.843Z,993.31
2018-04-18T09:04:32.333Z,993.27
2018-04-18T09:05:32.347Z,993.27
2018-04-18T09:06:32.603Z,993.44
2018-04-18T09:07:32.864Z,993.78
2018-04-18T09:08:33.119Z,994.03
2018-04-18T09:09:33.379Z,994.24
2018-04-18T09:10:33.636Z,994.45
2018-04-18T09:11:33.894Z,994.56
2018-04-18T09:12:34.151Z,994.55
2018-04-18T09:13:34.407Z,994.62
2018-04-18T09:14:34.667Z,994.72
2018-04-18T09:15:34.921Z,994.65
2018-04-18T09:16:35.177Z,994.71
2018-04-18T09:17:35.440Z,994.73
2018-04-18T09:18:35.693Z,994.62
2018-04-18T09:19:35.951Z,994.65
2018-04-18T09:20:36.211Z,994.60
2018-04-18T09:21:36.468Z,994.54
2018-04-18T09:22:36.723Z,994.50
2018-04-18T09:23:36.981Z,994.44
2018-04-18T09:24:37.237Z,994.41
2018-04-18T09:25:37.495Z,994.40
2018-04-18T09:26:37.755Z,994.35
2018-04-18T09:27:38.012Z,994.35
2018-04-18T09:28:38.271Z,994.33
2018-04-18T09:29:38.528Z,994.30
2018-04-18T09:30:38.784Z,994.24
2018-04-18T09:31:39.041Z,994.14
2018-04-18T09:32:39.298Z,994.05
2018-04-18T09:33:39.556Z,993.93
2018-04-18T09:34:39.815Z,993.83
2018-04-18T09:35:40.071Z,993.75
2018-04-18T09:36:40.327Z,993.68
2018-04-18T09:37:40.590Z,993.66
2018-04-18T09:38:40.852Z,993.57
2018-04-18T09:39:41.152Z,993.48
2018-04-18T09:40:41.356Z,993.47
2018-04-18T09:41:41.614Z,993.38
2018-04-18T09:42:41.872Z,993.40
2018-04-18T09:43:42.130Z,993.33
2018-04-18T09:44:42.387Z,993.33
2018-04-18T09:45:42.644Z,993.29
2018-04-18T09:46:42.902Z,993.34
2018-04-18T09:47:43.160Z,993.24
2018-04-18T09:48:43.417Z,993.22
2018-04-18T09:49:43.677Z,993.14
2018-04-18T09:50:43.933Z,993.12
2018-04-18T09:51:44.192Z,993.11
2018-04-18T09:52:44.450Z,993.10
2018-04-18T09:53:44.709Z,993.04
2018-04-18T09:54:44.971Z,993.02
2018-04-18T09:55:45.226Z,993.05
2018-04-18T09:56:45.484Z,993.16
2018-04-18T09:57:45.742Z,993.13
2018-04-18T09:58:45.999Z,993.15
2018-04-18T09:59:46.257Z,993.19
2018-04-18T10:00:46.515Z,993.22
2018-04-18T10:01:46.775Z,993.31
2018-04-18T10:02:47.032Z,993.41
2018-04-18T10:03:47.287Z,993.39
2018-04-18T10:04:47.545Z,993.24
2018-04-18T10:05:47.804Z,993.23
2018-04-18T10:06:48.064Z,993.25
2018-04-18T10:07:48.322Z,993.35
2018-04-18T10:08:48.579Z,993.53
2018-04-18T10:09:48.837Z,993.58
2018-04-18T10:10:49.096Z,993.54
2018-04-18T10:11:49.355Z,993.44
2018-04-18T10:12:49.614Z,993.47
2018-04-18T10:13:49.876Z,993.52
2018-04-18T10:14:50.139Z,993.62
2018-04-18T10:15:50.392Z,993.63
2018-04-18T10:16:50.652Z,993.73
2018-04-18T10:17:50.910Z,993.81
2018-04-18T10:18:51.168Z,993.88
2018-04-18T10:19:51.429Z,993.93
2018-04-18T10:20:51.694Z,994.04
2018-04-18T10:21:51.948Z,994.06
2018-04-18T10:22:52.246Z,994.00
2018-04-18T10:23:52.472Z,993.99
2018-04-18T10:24:52.726Z,993.94
2018-04-18T10:25:52.986Z,994.12
2018-04-18T10:26:53.243Z,994.17
2018-04-18T10:27:53.502Z,993.98
2018-04-18T10:28:53.765Z,993.86
2018-04-18T10:29:54.026Z,993.69
2018-04-18T10:30:54.281Z,993.64
2018-04-18T10:31:54.541Z,993.54
2018-04-18T10:32:54.799Z,993.49
2018-04-18T10:33:55.059Z,993.45
2018-04-18T10:34:55.321Z,993.39
2018-04-18T10:35:55.575Z,993.36
2018-04-18T10:36:55.836Z,993.30
2018-04-18T10:37:56.093Z,993.28
2018-04-18T10:38:56.353Z,993.13
2018-04-18T10:39:56.612Z,993.20
2018-04-18T10:40:56.869Z,993.24
2018-04-18T10:41:57.129Z,993.23
2018-04-18T10:42:57.385Z,993.24
2018-04-18T10:43:57.646Z,993.20
2018-04-18T10:44:57.903Z,993.11
2018-04-18T10:45:58.165Z,993.17
2018-04-18T10:46:58.424Z,993.19
2018-04-18T10:47:58.678Z,993.19
2018-04-18T10:48:58.942Z,993.21
2018-04-18T10:49:59.197Z,993.33
2018-04-18T10:50:59.459Z,993.38
2018-04-18T10:51:59.716Z,993.49
2018-04-18T10:53:00.059Z,993.61
2018-04-18T10:54:00.245Z,993.71
2018-04-18T10:55:00.511Z,993.69
2018-04-18T10:56:00.763Z,993.70
2018-04-18T10:57:01.026Z,993.73
2018-04-18T10:58:01.281Z,993.69
2018-04-18T10:59:01.541Z,993.65
2018-04-18T11:00:01.803Z,993.71
2018-04-18T11:01:02.061Z,993.70
2018-04-18T11:02:02.321Z,993.70
2018-04-18T11:03:02.581Z,993.70
2018-04-18T11:04:02.837Z,993.70
2018-04-18T11:05:03.100Z,993.71
2018-04-18T11:06:03.353Z,993.74
2018-04-18T11:07:03.614Z,993.72
2018-04-18T11:08:03.878Z,993.67
2018-04-18T11:09:04.130Z,993.62
2018-04-18T11:10:04.390Z,993.54
2018-04-18T11:11:04.646Z,993.42
2018-04-18T11:12:04.907Z,993.34
2018-04-18T11:13:05.167Z,993.28
2018-04-18T11:14:05.425Z,993.26
2018-04-18T11:15:05.685Z,993.20
2018-04-18T11:16:05.950Z,993.20
2018-04-18T11:17:06.205Z,993.29
2018-04-18T11:18:06.466Z,993.37
2018-04-18T11:19:06.737Z,993.41
2018-04-18T11:20:06.988Z,993.40
2018-04-18T11:21:07.248Z,993.48
2018-04-18T11:22:07.510Z,993.47
2018-04-18T11:23:07.770Z,993.43
2018-04-18T11:24:08.031Z,993.32
2018-04-18T11:25:08.290Z,993.28
2018-04-18T11:26:08.551Z,993.23
2018-04-18T11:27:08.812Z,993.22
2018-04-18T11:28:09.073Z,993.17
2018-04-18T11:29:09.333Z,993.15
2018-04-18T11:30:09.591Z,993.23
2018-04-18T11:31:09.852Z,993.35
2018-04-18T11:32:10.113Z,993.43
2018-04-18T11:33:10.373Z,993.50
2018-04-18T11:34:10.634Z,993.52
2018-04-18T11:35:10.895Z,993.51
2018-04-18T11:36:11.157Z,993.53
2018-04-18T11:37:11.420Z,993.50
2018-04-18T11:38:11.680Z,993.43
2018-04-18T11:39:11.940Z,993.35
2018-04-18T11:40:12.201Z,993.16
2018-04-18T11:41:12.463Z,992.99
2018-04-18T11:42:12.721Z,992.99
2018-04-18T11:43:12.987Z,992.97
2018-04-18T11:44:13.240Z,992.95
2018-04-18T11:45:13.500Z,992.97
2018-04-18T11:46:13.759Z,992.96
2018-04-18T11:47:14.019Z,992.93
2018-04-18T11:48:14.276Z,992.96
2018-04-18T11:49:14.536Z,992.96
2018-04-18T11:50:14.792Z,992.97
2018-04-18T11:51:15.060Z,992.96
2018-04-18T11:52:15.322Z,992.95
2018-04-18T11:53:15.585Z,992.96
2018-04-18T11:54:15.898Z,992.97
2018-04-18T11:55:16.174Z,992.94
2018-04-18T11:56:16.435Z,992.95
2018-04-18T11:57:16.729Z,992.90
2018-04-18T11:58:17.040Z,992.91
2018-04-18T11:59:17.305Z,992.89
2018-04-18T12:00:17.563Z,992.92
2018-04-18T12:01:17.821Z,992.88
2018-04-18T12:02:18.116Z,992.89
2018-04-18T12:03:18.343Z,992.88
2018-04-18T12:04:18.595Z,992.90
2018-04-18T12:05:18.957Z,992.90
2018-04-18T12:06:19.265Z,992.87
2018-04-18T12:07:19.521Z,992.85
2018-04-18T12:08:19.779Z,992.85
2018-04-18T12:09:20.039Z,992.84
2018-04-18T12:10:20.303Z,992.82
2018-04-18T12:11:20.559Z,992.82
2018-04-18T12:12:20.818Z,992.80
2018-04-18T12:13:21.078Z,992.75
2018-04-18T12:14:21.337Z,992.74
2018-04-18T12:15:21.597Z,992.71
2018-04-18T12:16:21.855Z,992.73
2018-04-18T12:17:22.115Z,992.69
2018-04-18T12:18:22.377Z,992.68
2018-04-18T12:19:22.637Z,992.71
2018-04-18T12:20:22.895Z,992.69
2018-04-18T12:21:23.155Z,992.67
2018-04-18T12:22:23.415Z,992.66
2018-04-18T12:23:23.675Z,992.66
2018-04-18T12:24:23.936Z,992.65
2018-04-18T12:25:24.200Z,992.67
2018-04-18T12:26:24.456Z,992.66
2018-04-18T12:27:24.716Z,992.63
2018-04-18T12:28:24.980Z,992.70
2018-04-18T12:29:25.227Z,992.66
2018-04-18T12:30:25.489Z,992.63
2018-04-18T12:31:25.746Z,992.63